createdAt,value
2023-11-07T00:00:45.955Z,15.50
2023-11-07T00:03:15.712Z,31.98
2023-11-07T00:05:45.480Z,19.48
2023-11-07T00:08:15.149Z,16.42
2023-11-07T00:10:44.644Z,17.55
2023-11-07T00:13:14.187Z,17.35
2023-11-07T00:15:44.762Z,18.95
2023-11-07T00:18:14.586Z,18.23
2023-11-07T00:20:44.421Z,14.32
2023-11-07T00:23:15.889Z,18.00
2023-11-07T00:25:45.743Z,39.10
2023-11-07T00:28:15.393Z,19.52
2023-11-07T00:30:44.919Z,16.17
2023-11-07T00:33:14.557Z,17.63
2023-11-07T00:35:44.363Z,21.63
2023-11-07T00:38:14.031Z,19.77
2023-11-07T00:40:43.529Z,25.48
2023-11-07T00:43:13.075Z,19.58
2023-11-07T00:45:43.463Z,25.42
2023-11-07T00:48:14.068Z,13.65
2023-11-07T00:50:43.739Z,16.30
2023-11-07T00:53:13.345Z,14.82
2023-11-07T00:55:44.994Z,13.15
2023-11-07T00:58:15.792Z,12.95
2023-11-07T01:00:45.362Z,14.52
2023-11-07T01:03:19.433Z,11.30
2023-11-07T01:05:49.146Z,14.25
2023-11-07T01:08:18.724Z,10.15
2023-11-07T01:10:48.495Z,17.90
2023-11-07T01:13:18.380Z,12.85
2023-11-07T01:15:49.196Z,11.65
2023-11-07T01:18:19.480Z,13.50
2023-11-07T01:20:52.125Z,13.10
2023-11-07T01:23:22.035Z,12.48
2023-11-07T01:25:55.295Z,11.77
2023-11-07T01:28:27.061Z,9.40
2023-11-07T01:30:57.618Z,13.55
2023-11-07T01:33:28.374Z,9.13
2023-11-07T01:35:58.685Z,12.52
2023-11-07T01:38:28.394Z,14.20
2023-11-07T01:40:58.020Z,11.25
2023-11-07T01:43:28.424Z,13.90
2023-11-07T01:46:02.106Z,6.40
2023-11-07T01:48:35.629Z,7.82
2023-11-07T01:51:07.673Z,11.38
2023-11-07T01:53:37.337Z,7.97
2023-11-07T01:56:10.242Z,11.27
2023-11-07T01:58:43.615Z,8.57
2023-11-07T02:01:13.493Z,6.82
2023-11-07T02:03:52.249Z,6.45
2023-11-07T02:06:22.264Z,10.63
2023-11-07T02:08:51.970Z,5.45
2023-11-07T02:11:23.677Z,5.35
2023-11-07T02:13:54.398Z,7.85
2023-11-07T02:16:26.977Z,5.15
2023-11-07T02:19:02.081Z,9.75
2023-11-07T02:21:36.154Z,4.72
2023-11-07T02:24:10.831Z,4.63
2023-11-07T02:26:40.593Z,4.32
2023-11-07T02:29:10.275Z,4.53
2023-11-07T02:31:39.869Z,6.45
2023-11-07T02:34:12.702Z,8.00
2023-11-07T02:36:48.401Z,11.83
2023-11-07T02:39:18.437Z,8.45
2023-11-07T02:41:48.597Z,7.82
2023-11-07T02:44:18.516Z,8.82
2023-11-07T02:47:00.531Z,6.95
2023-11-07T02:49:31.946Z,7.53
2023-11-07T02:52:04.595Z,8.77
2023-11-07T02:54:36.985Z,10.05
2023-11-07T02:57:09.818Z,8.65
2023-11-07T02:59:41.231Z,6.80
2023-11-07T03:02:13.803Z,15.13
2023-11-07T03:04:46.835Z,8.25
2023-11-07T03:07:18.523Z,9.05
2023-11-07T03:09:48.635Z,7.25
2023-11-07T03:12:23.159Z,6.70
2023-11-07T03:14:53.898Z,12.88
2023-11-07T03:17:24.373Z,4.82
2023-11-07T03:20:00.930Z,5.72
2023-11-07T03:22:31.591Z,7.65
2023-11-07T03:25:04.307Z,7.25
2023-11-07T03:27:36.026Z,7.38
2023-11-07T03:30:08.703Z,5.82
2023-11-07T03:32:38.857Z,4.47
2023-11-07T03:35:09.393Z,5.70
2023-11-07T03:37:44.106Z,8.32
2023-11-07T03:40:15.177Z,7.60
2023-11-07T03:42:47.380Z,5.00
2023-11-07T03:45:17.027Z,14.65
2023-11-07T03:47:50.597Z,12.85
2023-11-07T03:50:25.223Z,8.40
2023-11-07T03:52:54.836Z,4.90
2023-11-07T03:55:24.455Z,5.47
2023-11-07T03:57:57.328Z,6.45
2023-11-07T04:00:35.409Z,7.07
2023-11-07T04:03:06.563Z,6.40
2023-11-07T04:05:39.181Z,6.60
2023-11-07T04:08:10.368Z,4.57
2023-11-07T04:10:40.991Z,8.60
2023-11-07T04:13:10.992Z,11.48
2023-11-07T04:15:41.474Z,10.13
2023-11-07T04:18:21.328Z,11.68
2023-11-07T04:20:53.355Z,11.23
2023-11-07T04:23:23.033Z,5.32
2023-11-07T04:25:53.028Z,5.80
2023-11-07T04:28:24.554Z,5.25
2023-11-07T04:30:57.431Z,5.50
2023-11-07T04:33:29.972Z,4.05
2023-11-07T04:36:09.312Z,8.45
2023-11-07T04:38:40.467Z,4.97
2023-11-07T04:41:10.147Z,5.45
2023-11-07T04:43:40.920Z,5.30
2023-11-07T04:46:10.568Z,3.83
2023-11-07T04:48:42.025Z,8.52
2023-11-07T04:51:11.846Z,7.28
2023-11-07T04:53:41.561Z,3.78
2023-11-07T04:56:13.895Z,5.03
2023-11-07T04:58:56.770Z,3.60
2023-11-07T05:01:37.948Z,3.97
2023-11-07T05:04:16.536Z,4.32
2023-11-07T05:06:54.712Z,5.93
2023-11-07T05:09:26.197Z,3.92
2023-11-07T05:11:55.942Z,3.58
2023-11-07T05:14:25.648Z,4.65
2023-11-07T05:16:55.353Z,6.68
2023-11-07T05:19:27.153Z,6.57
2023-11-07T05:21:56.802Z,5.97
2023-11-07T05:24:29.996Z,5.03
2023-11-07T05:27:03.697Z,8.25
2023-11-07T05:29:33.366Z,4.68
2023-11-07T05:32:08.553Z,10.02
2023-11-07T05:34:42.044Z,3.53
2023-11-07T05:37:14.823Z,9.15
2023-11-07T05:39:47.946Z,4.03
2023-11-07T05:44:54.614Z,6.80
2023-11-07T05:47:26.272Z,11.30
2023-11-07T05:52:38.840Z,6.57
2023-11-07T05:55:17.374Z,3.83
2023-11-07T05:57:54.289Z,7.45
2023-11-07T06:00:24.304Z,6.45
2023-11-07T06:02:53.985Z,5.13
2023-11-07T06:05:25.437Z,4.53
2023-11-07T06:07:58.247Z,5.70
2023-11-07T06:13:10.289Z,2.80
2023-11-07T06:15:51.218Z,6.35
2023-11-07T06:18:24.910Z,5.18
2023-11-07T06:20:55.364Z,5.32
2023-11-07T06:23:26.901Z,7.55
2023-11-07T06:25:59.216Z,7.63
2023-11-07T06:28:31.569Z,6.40
2023-11-07T06:31:01.107Z,5.43
2023-11-07T06:33:31.471Z,3.97
2023-11-07T06:36:02.187Z,4.32
2023-11-07T06:38:35.946Z,5.72
2023-11-07T06:41:10.481Z,3.95
2023-11-07T06:43:40.719Z,6.72
2023-11-07T06:46:11.079Z,7.32
2023-11-07T06:48:45.881Z,4.60
2023-11-07T06:51:19.037Z,5.97
2023-11-07T06:53:49.280Z,11.40
2023-11-07T06:56:19.101Z,11.18
2023-11-07T06:58:52.901Z,8.68
2023-11-07T07:01:25.881Z,6.82
2023-11-07T07:03:58.892Z,9.45
2023-11-07T07:06:29.905Z,8.85
2023-11-07T07:09:08.574Z,8.32
2023-11-07T07:11:41.987Z,6.22
2023-11-07T07:14:13.685Z,13.25
2023-11-07T07:16:46.072Z,3.22
2023-11-07T07:19:26.012Z,5.28
2023-11-07T07:22:04.850Z,8.18
2023-11-07T07:24:42.762Z,6.13
2023-11-07T07:27:21.748Z,4.10
2023-11-07T07:29:51.357Z,7.25
2023-11-07T07:32:23.032Z,5.10
2023-11-07T07:34:53.973Z,10.02
2023-11-07T07:37:28.217Z,13.57
2023-11-07T07:40:08.328Z,8.45
2023-11-07T07:42:39.714Z,11.40
2023-11-07T07:45:12.109Z,8.75
2023-11-07T07:47:44.624Z,5.95
2023-11-07T07:50:17.907Z,5.75
2023-11-07T07:52:50.194Z,3.63
2023-11-07T07:55:31.801Z,5.68
2023-11-07T07:58:08.120Z,10.13
2023-11-07T08:00:42.116Z,6.55
2023-11-07T08:03:19.584Z,4.97
2023-11-07T08:05:50.915Z,9.98
2023-11-07T08:08:20.851Z,9.07
2023-11-07T08:10:50.793Z,5.68
2023-11-07T08:13:21.270Z,8.15
2023-11-07T08:15:52.713Z,9.15
2023-11-07T08:18:24.781Z,5.75
2023-11-07T08:20:54.542Z,4.40
2023-11-07T08:23:32.278Z,12.50
2023-11-07T08:26:01.912Z,13.23
2023-11-07T08:28:38.087Z,6.20
2023-11-07T08:31:09.916Z,5.53
2023-11-07T08:33:40.633Z,9.02
2023-11-07T08:36:12.633Z,7.97
2023-11-07T08:38:44.053Z,13.48
2023-11-07T08:41:35.906Z,8.20
2023-11-07T08:44:16.014Z,6.32
2023-11-07T08:46:48.354Z,8.55
2023-11-07T08:49:22.557Z,9.10
2023-11-07T08:51:54.471Z,9.38
2023-11-07T08:54:24.753Z,5.53
2023-11-07T08:56:54.470Z,8.57
2023-11-07T08:59:24.262Z,10.32
2023-11-07T09:01:55.052Z,17.27
2023-11-07T09:04:24.982Z,7.90
2023-11-07T09:06:54.617Z,4.13
2023-11-07T09:09:26.508Z,9.30
2023-11-07T09:11:58.750Z,15.57
2023-11-07T09:14:30.838Z,11.02
2023-11-07T09:17:00.401Z,7.68
2023-11-07T09:19:30.360Z,6.55
2023-11-07T09:22:00.078Z,8.15
2023-11-07T09:24:46.556Z,8.55
2023-11-07T09:27:19.285Z,11.98
2023-11-07T09:29:59.622Z,6.72
2023-11-07T09:32:32.900Z,10.25
2023-11-07T09:35:02.513Z,9.82
2023-11-07T09:37:32.438Z,23.73
2023-11-07T09:40:15.583Z,12.30
2023-11-07T09:42:50.452Z,6.85
2023-11-07T09:45:22.728Z,12.57
2023-11-07T09:48:02.393Z,6.80
2023-11-07T09:50:32.689Z,7.80
2023-11-07T09:53:02.787Z,14.15
2023-11-07T09:55:36.228Z,9.73
2023-11-07T09:58:15.727Z,6.95
2023-11-07T10:00:48.273Z,11.45
2023-11-07T10:03:22.661Z,12.55
2023-11-07T10:05:55.450Z,10.73
2023-11-07T10:08:32.001Z,29.83
2023-11-07T10:11:18.207Z,13.90
2023-11-07T10:14:05.755Z,10.25
2023-11-07T10:16:47.029Z,17.85
2023-11-07T10:19:21.869Z,7.63
2023-11-07T10:27:30.958Z,10.43
2023-11-07T10:30:00.806Z,6.57
2023-11-07T10:32:48.555Z,10.02
2023-11-07T10:35:19.606Z,8.63
2023-11-07T10:37:53.811Z,13.73
2023-11-07T10:40:24.781Z,6.55
2023-11-07T10:42:57.030Z,15.00
2023-11-07T10:45:27.472Z,12.55
2023-11-07T10:47:57.959Z,23.40
2023-11-07T10:50:30.081Z,15.60
2023-11-07T10:53:00.395Z,21.88
2023-11-07T10:55:30.909Z,16.83
2023-11-07T10:58:07.781Z,15.63
2023-11-07T11:00:48.028Z,12.90
2023-11-07T11:03:28.084Z,12.38
2023-11-07T11:06:03.494Z,12.20
2023-11-07T11:08:39.018Z,12.05
2023-11-07T11:11:09.974Z,9.13
2023-11-07T11:13:39.851Z,5.43
2023-11-07T11:16:15.326Z,5.65
2023-11-07T11:19:12.802Z,11.02
2023-11-07T11:21:49.535Z,14.63
2023-11-07T11:25:04.111Z,10.65
2023-11-07T11:27:41.045Z,11.43
2023-11-07T11:30:15.655Z,15.15
2023-11-07T11:32:48.829Z,22.65
2023-11-07T11:35:22.189Z,21.15
2023-11-07T11:38:21.341Z,19.08
2023-11-07T11:41:02.530Z,17.77
2023-11-07T11:43:38.181Z,14.05
2023-11-07T11:46:21.292Z,23.88
2023-11-07T11:48:54.350Z,20.30
2023-11-07T11:51:51.108Z,28.95
2023-11-07T11:54:56.223Z,38.58
2023-11-07T11:57:27.792Z,28.08
2023-11-07T12:00:06.916Z,27.00
2023-11-07T12:02:47.455Z,35.83
2023-11-07T12:05:20.297Z,24.23
2023-11-07T12:07:56.875Z,36.95
2023-11-07T12:10:30.059Z,31.23
2023-11-07T12:13:00.644Z,22.20
2023-11-07T12:15:35.377Z,33.95
2023-11-07T12:18:06.256Z,34.38
2023-11-07T12:20:51.659Z,26.33
2023-11-07T12:23:40.427Z,40.55
2023-11-07T12:26:11.658Z,33.83
2023-11-07T12:28:48.770Z,31.75
2023-11-07T12:31:25.913Z,31.05
2023-11-07T12:33:59.473Z,28.40
2023-11-07T12:36:29.302Z,32.22
2023-11-07T12:39:01.646Z,26.88
2023-11-07T12:41:38.193Z,23.13
2023-11-07T12:44:24.902Z,24.15
2023-11-07T12:46:56.360Z,29.67
2023-11-07T12:52:17.897Z,34.00
2023-11-07T12:54:47.487Z,31.48
2023-11-07T12:57:18.824Z,39.65
2023-11-07T13:00:19.840Z,32.60
2023-11-07T13:02:55.489Z,34.88
2023-11-07T13:05:28.241Z,33.72
2023-11-07T13:07:58.745Z,58.13
2023-11-07T13:10:28.333Z,27.38
2023-11-07T13:13:01.784Z,38.85
2023-11-07T13:15:32.068Z,46.22
2023-11-07T13:18:02.075Z,29.30
2023-11-07T13:31:41.923Z,29.42
2023-11-07T13:40:05.201Z,34.60
2023-11-07T13:43:02.280Z,27.83
2023-11-07T13:45:37.830Z,34.90
2023-11-07T13:56:17.383Z,33.40
2023-11-07T14:01:46.152Z,30.00
2023-11-07T14:04:16.381Z,34.65
2023-11-07T14:12:54.293Z,27.90
2023-11-07T14:18:35.898Z,30.98
2023-11-07T14:21:26.002Z,28.85
2023-11-07T14:26:53.311Z,27.05
2023-11-07T14:29:55.188Z,22.70
2023-11-07T14:32:30.246Z,26.33
2023-11-07T14:43:17.518Z,32.67
2023-11-07T14:51:21.393Z,27.33
2023-11-07T14:53:54.819Z,29.13
2023-11-07T14:59:11.181Z,36.53
2023-11-07T15:01:41.245Z,33.15
2023-11-07T15:04:13.609Z,36.97
2023-11-07T15:06:43.325Z,28.92
2023-11-07T15:09:21.849Z,31.50
2023-11-07T15:11:52.542Z,31.83
2023-11-07T15:14:45.393Z,34.85
2023-11-07T15:17:14.672Z,31.75
2023-11-07T15:19:45.735Z,30.92
2023-11-07T15:25:09.039Z,28.05
2023-11-07T15:27:41.941Z,31.80
2023-11-07T15:30:15.932Z,34.47
2023-11-07T15:32:52.776Z,24.85
2023-11-07T15:35:26.366Z,34.45
2023-11-07T15:37:55.938Z,24.92
2023-11-07T15:40:28.613Z,30.23
2023-11-07T15:43:03.092Z,37.95
2023-11-07T15:45:37.163Z,33.78
2023-11-07T15:48:12.930Z,32.50
2023-11-07T15:50:48.466Z,28.35
2023-11-07T15:53:30.849Z,27.52
2023-11-07T15:56:00.391Z,29.10
2023-11-07T15:58:31.959Z,33.35
2023-11-07T16:01:15.905Z,30.88
2023-11-07T16:03:51.530Z,35.78
2023-11-07T16:06:26.031Z,29.98
2023-11-07T16:09:10.546Z,34.10
2023-11-07T16:11:58.056Z,26.67
2023-11-07T16:14:30.642Z,36.08
2023-11-07T16:17:03.498Z,31.65
2023-11-07T16:19:44.854Z,33.85
2023-11-07T16:22:20.524Z,23.90
2023-11-07T16:27:45.543Z,38.97
2023-11-07T16:30:27.057Z,30.63
2023-11-07T16:33:14.044Z,35.75
2023-11-07T16:38:33.584Z,36.53
2023-11-07T16:41:05.428Z,34.60
2023-11-07T16:43:37.298Z,29.38
2023-11-07T16:46:14.608Z,31.63
2023-11-07T16:48:47.746Z,31.02
2023-11-07T16:51:22.968Z,36.50
2023-11-07T16:56:34.558Z,130.68
2023-11-07T16:59:06.876Z,89.45
2023-11-07T17:09:51.742Z,37.53
2023-11-07T17:12:27.466Z,39.90
2023-11-07T17:14:57.550Z,38.22
2023-11-07T17:17:32.225Z,38.45
2023-11-07T17:20:03.203Z,50.25
2023-11-07T17:22:38.346Z,46.67
2023-11-07T17:25:11.140Z,42.53
2023-11-07T17:27:45.867Z,42.72
2023-11-07T17:30:30.943Z,42.17
2023-11-07T17:33:05.180Z,46.80
2023-11-07T17:35:35.199Z,35.67
2023-11-07T17:38:04.701Z,29.35
2023-11-07T17:40:36.554Z,30.63
2023-11-07T17:43:06.123Z,24.48
2023-11-07T17:45:40.449Z,24.15
2023-11-07T17:48:10.118Z,32.90
2023-11-07T17:50:42.224Z,27.67
2023-11-07T17:55:44.860Z,21.17
2023-11-07T17:58:20.658Z,22.88
2023-11-07T18:00:50.340Z,21.30
2023-11-07T18:06:09.523Z,20.25
2023-11-07T18:08:45.645Z,23.50
2023-11-07T18:11:21.793Z,20.30
2023-11-07T18:13:53.814Z,24.48
2023-11-07T18:16:25.355Z,22.00
2023-11-07T18:18:58.515Z,22.30
2023-11-07T18:21:30.214Z,22.92
2023-11-07T18:24:21.956Z,30.02
2023-11-07T18:26:53.615Z,29.00
2023-11-07T18:29:28.546Z,28.80
2023-11-07T18:34:40.449Z,33.13
2023-11-07T18:37:11.064Z,34.58
2023-11-07T18:39:43.102Z,25.50
2023-11-07T18:42:16.088Z,31.45
2023-11-07T18:44:54.336Z,31.50
2023-11-07T18:47:25.091Z,32.30
2023-11-07T18:49:59.536Z,30.05
2023-11-07T18:52:32.035Z,34.65
2023-11-07T18:55:03.699Z,31.00
2023-11-07T18:57:33.982Z,30.52
2023-11-07T19:00:24.274Z,29.95
2023-11-07T19:02:57.358Z,28.83
2023-11-07T19:05:30.867Z,26.20
2023-11-07T19:08:01.782Z,28.38
2023-11-07T19:10:31.338Z,28.08
2023-11-07T19:13:01.003Z,28.08
2023-11-07T19:15:30.779Z,24.83
2023-11-07T19:18:02.590Z,22.48
2023-11-07T19:20:35.479Z,31.40
2023-11-07T19:23:05.021Z,23.50
2023-11-07T19:25:36.441Z,23.35
2023-11-07T19:28:13.231Z,26.98
2023-11-07T19:30:42.999Z,21.75
2023-11-07T19:33:15.799Z,21.25
2023-11-07T19:35:54.259Z,24.50
2023-11-07T19:38:25.841Z,23.25
2023-11-07T19:40:57.059Z,21.30
2023-11-07T19:43:38.151Z,22.65
2023-11-07T19:46:11.086Z,24.53
2023-11-07T19:48:41.434Z,22.73
2023-11-07T19:51:12.043Z,21.88
2023-11-07T19:53:45.503Z,22.75
2023-11-07T19:56:16.722Z,27.75
2023-11-07T19:59:00.458Z,19.10
2023-11-07T20:01:30.648Z,19.77
2023-11-07T20:04:01.477Z,17.67
2023-11-07T20:06:31.923Z,21.88
2023-11-07T20:09:01.545Z,23.45
2023-11-07T20:11:33.015Z,18.75
2023-11-07T20:14:04.167Z,20.77
2023-11-07T20:16:35.257Z,22.98
2023-11-07T20:19:07.360Z,16.90
2023-11-07T20:21:39.501Z,19.02
2023-11-07T20:24:10.714Z,15.15
2023-11-07T20:26:40.230Z,23.42
2023-11-07T20:29:09.736Z,16.42
2023-11-07T20:31:39.922Z,18.10
2023-11-07T20:34:13.540Z,21.13
2023-11-07T20:36:44.627Z,16.00
2023-11-07T20:39:15.106Z,19.65
2023-11-07T20:41:46.314Z,18.48
2023-11-07T20:44:22.299Z,19.52
2023-11-07T20:46:57.905Z,26.30
2023-11-07T20:49:27.499Z,19.17
2023-11-07T20:51:57.054Z,28.52
2023-11-07T20:54:26.549Z,18.17
2023-11-07T20:56:56.256Z,20.60
2023-11-07T20:59:26.000Z,18.35
2023-11-07T21:01:59.969Z,19.65
2023-11-07T21:04:29.891Z,19.98
2023-11-07T21:06:59.595Z,18.20
2023-11-07T21:09:29.047Z,15.43
2023-11-07T21:11:59.954Z,19.50
2023-11-07T21:14:29.597Z,18.92
2023-11-07T21:16:59.202Z,25.75
2023-11-07T21:19:28.751Z,19.15
2023-11-07T21:22:02.393Z,17.83
2023-11-07T21:24:32.612Z,19.23
2023-11-07T21:27:02.191Z,20.58
2023-11-07T21:29:32.340Z,20.67
2023-11-07T21:32:04.805Z,21.38
2023-11-07T21:34:34.482Z,20.50
2023-11-07T21:37:03.901Z,21.05
2023-11-07T21:42:16.332Z,41.67
2023-11-07T21:44:46.296Z,21.42
2023-11-07T21:47:19.201Z,17.90
2023-11-07T21:49:48.685Z,18.52
2023-11-07T21:52:18.959Z,16.35
2023-11-07T21:54:48.390Z,17.77
2023-11-07T21:57:18.037Z,20.42
2023-11-07T21:59:47.553Z,22.73
2023-11-07T22:02:18.134Z,19.10
2023-11-07T22:04:48.023Z,25.33
2023-11-07T22:07:17.644Z,16.80
2023-11-07T22:09:48.298Z,22.38
2023-11-07T22:12:18.073Z,19.60
2023-11-07T22:14:48.020Z,20.55
2023-11-07T22:17:17.671Z,22.42
2023-11-07T22:19:47.954Z,16.48
2023-11-07T22:22:17.961Z,18.70
2023-11-07T22:24:48.404Z,16.10
2023-11-07T22:27:17.895Z,19.80
2023-11-07T22:29:48.142Z,14.77
2023-11-07T22:32:17.658Z,27.38
2023-11-07T22:34:47.114Z,21.92
2023-11-07T22:37:16.562Z,23.40
2023-11-07T22:39:46.194Z,24.98
2023-11-07T22:42:15.690Z,21.67
2023-11-07T22:44:45.295Z,23.50
2023-11-07T22:47:14.798Z,21.23
2023-11-07T22:49:44.324Z,26.35
2023-11-07T22:52:13.878Z,22.35
2023-11-07T22:54:43.620Z,21.58
2023-11-07T22:57:13.115Z,22.52
2023-11-07T22:59:42.580Z,33.60
2023-11-07T23:02:14.117Z,27.25
2023-11-07T23:04:43.614Z,26.20
2023-11-07T23:07:16.714Z,21.73
2023-11-07T23:09:51.718Z,19.93
2023-11-07T23:12:21.313Z,19.90
2023-11-07T23:14:51.007Z,22.20
2023-11-07T23:17:20.602Z,25.40
2023-11-07T23:19:50.122Z,18.65
2023-11-07T23:22:19.827Z,18.90
2023-11-07T23:24:50.196Z,24.52
2023-11-07T23:27:19.687Z,20.58
2023-11-07T23:29:50.270Z,21.90
2023-11-07T23:32:19.774Z,27.00
2023-11-07T23:34:49.364Z,32.08
2023-11-07T23:37:18.991Z,24.23
2023-11-07T23:39:48.420Z,25.33
2023-11-07T23:42:18.450Z,22.23
2023-11-07T23:44:48.182Z,22.38
2023-11-07T23:47:17.871Z,25.67
2023-11-07T23:49:48.524Z,19.10
2023-11-07T23:52:18.252Z,30.85
2023-11-07T23:54:48.257Z,21.30
2023-11-07T23:57:17.751Z,25.65
2023-11-07T23:59:47.528Z,23.13
